Latah, Washington
Current Conditions -  °F | °C
As of 7:53 PM on Saturday 25 Oct 2014 (Local Time) from KSFF Reporting Station
Overcast Overcast  
Wind Chill: 63°   Ceiling: 10000
Heat Index: 63°   Visibility: 10mi
Dew Point: 40°   Wind: 8mph
Humidity: 43%   Direction: 200°SSW
Pressure: 29.53"   Gusts: NA
Location:  47.28°N, 117.16°W
Report Text: KSFF 260253Z 20007KT 10SM OVC100 17/04 A2953 RMK AO2 SLP996 60000 T01720044 53001
Loading
Personal Weather Stations






























Interactive Weather Map
Tropical Storm Tracking
New forecast layout! Learn more

10-Day Weather Forecast

Advertisements
Track Severe Weather on mobile